sensor_id;sensor_type;location;lat;lon;timestamp;temperature;humidity
31113;DHT22;17763;48.730;9.136;2023-03-01T00:01:13;0.20;96.40
31113;DHT22;17763;48.730;9.136;2023-03-01T00:03:39;0.30;96.40
31113;DHT22;17763;48.730;9.136;2023-03-01T00:06:05;0.20;96.70
31113;DHT22;17763;48.730;9.136;2023-03-01T00:08:32;0.20;96.70
31113;DHT22;17763;48.730;9.136;2023-03-01T00:13:31;0.30;97.00
31113;DHT22;17763;48.730;9.136;2023-03-01T00:15:57;0.20;97.00
31113;DHT22;17763;48.730;9.136;2023-03-01T00:18:23;0.20;97.10
31113;DHT22;17763;48.730;9.136;2023-03-01T00:20:50;0.30;97.20
31113;DHT22;17763;48.730;9.136;2023-03-01T00:23:16;0.30;97.30
31113;DHT22;17763;48.730;9.136;2023-03-01T00:25:43;0.30;97.40
31113;DHT22;17763;48.730;9.136;2023-03-01T00:28:11;0.40;97.50
31113;DHT22;17763;48.730;9.136;2023-03-01T00:30:36;0.30;97.50
31113;DHT22;17763;48.730;9.136;2023-03-01T00:33:02;0.30;97.60
31113;DHT22;17763;48.730;9.136;2023-03-01T00:35:28;0.30;97.70
31113;DHT22;17763;48.730;9.136;2023-03-01T00:37:53;0.20;97.80
31113;DHT22;17763;48.730;9.136;2023-03-01T00:40:32;0.20;98.00
31113;DHT22;17763;48.730;9.136;2023-03-01T00:42:57;0.10;98.20
31113;DHT22;17763;48.730;9.136;2023-03-01T00:45:24;0.10;98.40
31113;DHT22;17763;48.730;9.136;2023-03-01T00:47:50;0.10;98.60
31113;DHT22;17763;48.730;9.136;2023-03-01T00:50:20;0.10;98.80
31113;DHT22;17763;48.730;9.136;2023-03-01T00:52:46;0.00;99.00
31113;DHT22;17763;48.730;9.136;2023-03-01T00:55:12;0.00;99.20
31113;DHT22;17763;48.730;9.136;2023-03-01T00:57:38;-0.10;99.40
31113;DHT22;17763;48.730;9.136;2023-03-01T01:00:06;-0.10;99.60
31113;DHT22;17763;48.730;9.136;2023-03-01T01:02:34;-0.10;99.80
31113;DHT22;17763;48.730;9.136;2023-03-01T01:04:59;-0.10;99.90
31113;DHT22;17763;48.730;9.136;2023-03-01T01:07:25;-0.10;99.90
31113;DHT22;17763;48.730;9.136;2023-03-01T01:09:51;-0.20;99.90
31113;DHT22;17763;48.730;9.136;2023-03-01T01:12:16;-0.20;99.90
31113;DHT22;17763;48.730;9.136;2023-03-01T01:14:42;-0.20;99.90
31113;DHT22;17763;48.730;9.136;2023-03-01T01:17:08;-0.20;99.90
31113;DHT22;17763;48.730;9.136;2023-03-01T01:19:35;-0.30;99.90
31113;DHT22;17763;48.730;9.136;2023-03-01T01:22:03;-0.20;99.90
31113;DHT22;17763;48.730;9.136;2023-03-01T01:24:29;-0.30;99.90
31113;DHT22;17763;48.730;9.136;2023-03-01T01:26:55;-0.30;99.90
31113;DHT22;17763;48.730;9.136;2023-03-01T01:29:23;-0.30;99.90
31113;DHT22;17763;48.730;9.136;2023-03-01T01:31:49;-0.40;99.90
31113;DHT22;17763;48.730;9.136;2023-03-01T01:34:19;-0.40;99.90
31113;DHT22;17763;48.730;9.136;2023-03-01T01:36:48;-0.40;99.90
31113;DHT22;17763;48.730;9.136;2023-03-01T01:39:15;-0.40;99.90
31113;DHT22;17763;48.730;9.136;2023-03-01T01:41:41;-0.40;99.90
31113;DHT22;17763;48.730;9.136;2023-03-01T01:44:23;-0.40;99.90
31113;DHT22;17763;48.730;9.136;2023-03-01T01:47:02;-0.50;99.90
31113;DHT22;17763;48.730;9.136;2023-03-01T01:54:50;-0.50;99.90
31113;DHT22;17763;48.730;9.136;2023-03-01T01:57:25;-0.50;99.90
31113;DHT22;17763;48.730;9.136;2023-03-01T01:59:56;-0.60;99.90
31113;DHT22;17763;48.730;9.136;2023-03-01T02:02:23;-0.60;99.90
31113;DHT22;17763;48.730;9.136;2023-03-01T02:05:04;-0.60;99.90
31113;DHT22;17763;48.730;9.136;2023-03-01T02:07:34;-0.70;99.90
31113;DHT22;17763;48.730;9.136;2023-03-01T02:10:01;-0.70;99.90
31113;DHT22;17763;48.730;9.136;2023-03-01T02:12:27;-0.70;99.90
31113;DHT22;17763;48.730;9.136;2023-03-01T02:14:53;-0.70;99.90
31113;DHT22;17763;48.730;9.136;2023-03-01T02:17:19;-0.70;99.90
31113;DHT22;17763;48.730;9.136;2023-03-01T02:22:34;-0.70;99.90
31113;DHT22;17763;48.730;9.136;2023-03-01T02:28:02;-0.60;99.90
31113;DHT22;17763;48.730;9.136;2023-03-01T02:30:31;-0.60;99.90
31113;DHT22;17763;48.730;9.136;2023-03-01T02:32:59;-0.60;99.90
31113;DHT22;17763;48.730;9.136;2023-03-01T02:35:29;-0.60;99.90
31113;DHT22;17763;48.730;9.136;2023-03-01T02:37:56;-0.60;99.90
31113;DHT22;17763;48.730;9.136;2023-03-01T02:40:23;-0.60;99.90
31113;DHT22;17763;48.730;9.136;2023-03-01T02:42:58;-0.60;99.90
31113;DHT22;17763;48.730;9.136;2023-03-01T02:45:25;-0.60;99.90
31113;DHT22;17763;48.730;9.136;2023-03-01T02:47:54;-0.60;99.90
31113;DHT22;17763;48.730;9.136;2023-03-01T02:55:40;-0.50;99.90
31113;DHT22;17763;48.730;9.136;2023-03-01T02:58:05;-0.50;99.90
31113;DHT22;17763;48.730;9.136;2023-03-01T03:00:38;-0.50;99.90
31113;DHT22;17763;48.730;9.136;2023-03-01T03:03:06;-0.60;99.90
31113;DHT22;17763;48.730;9.136;2023-03-01T03:05:32;-0.50;99.90
31113;DHT22;17763;48.730;9.136;2023-03-01T03:08:00;-0.50;99.90
31113;DHT22;17763;48.730;9.136;2023-03-01T03:10:27;-0.50;99.90
31113;DHT22;17763;48.730;9.136;2023-03-01T03:13:04;-0.50;99.90
31113;DHT22;17763;48.730;9.136;2023-03-01T03:15:31;-0.40;99.90
31113;DHT22;17763;48.730;9.136;2023-03-01T03:17:58;-0.40;99.90
31113;DHT22;17763;48.730;9.136;2023-03-01T03:20:27;-0.50;99.90
31113;DHT22;17763;48.730;9.136;2023-03-01T03:22:55;-0.50;99.90
31113;DHT22;17763;48.730;9.136;2023-03-01T03:25:22;-0.40;99.90
31113;DHT22;17763;48.730;9.136;2023-03-01T03:27:50;-0.40;99.90
31113;DHT22;17763;48.730;9.136;2023-03-01T03:30:22;-0.40;99.90
31113;DHT22;17763;48.730;9.136;2023-03-01T03:32:48;-0.40;99.90
31113;DHT22;17763;48.730;9.136;2023-03-01T03:35:27;-0.40;99.90
31113;DHT22;17763;48.730;9.136;2023-03-01T03:37:55;-0.40;99.90
31113;DHT22;17763;48.730;9.136;2023-03-01T03:40:30;-0.40;99.90
31113;DHT22;17763;48.730;9.136;2023-03-01T03:42:56;-0.40;99.90
31113;DHT22;17763;48.730;9.136;2023-03-01T03:45:21;-0.40;99.90
31113;DHT22;17763;48.730;9.136;2023-03-01T03:47:47;-0.50;99.90
31113;DHT22;17763;48.730;9.136;2023-03-01T03:50:15;-0.30;99.90
31113;DHT22;17763;48.730;9.136;2023-03-01T03:52:41;-0.30;99.90
31113;DHT22;17763;48.730;9.136;2023-03-01T03:55:09;-0.30;99.90
31113;DHT22;17763;48.730;9.136;2023-03-01T03:57:36;-0.30;99.90
31113;DHT22;17763;48.730;9.136;2023-03-01T04:00:03;-0.30;99.90
31113;DHT22;17763;48.730;9.136;2023-03-01T04:02:30;-0.30;99.90
31113;DHT22;17763;48.730;9.136;2023-03-01T04:04:56;-0.30;99.90
31113;DHT22;17763;48.730;9.136;2023-03-01T04:07:22;-0.30;99.90
31113;DHT22;17763;48.730;9.136;2023-03-01T04:09:47;-0.30;99.90
31113;DHT22;17763;48.730;9.136;2023-03-01T04:12:15;-0.40;99.90
31113;DHT22;17763;48.730;9.136;2023-03-01T04:14:49;-0.40;99.90
31113;DHT22;17763;48.730;9.136;2023-03-01T04:17:15;-0.40;99.90
31113;DHT22;17763;48.730;9.136;2023-03-01T04:19:40;-0.30;99.90
31113;DHT22;17763;48.730;9.136;2023-03-01T04:22:09;-0.40;99.90
31113;DHT22;17763;48.730;9.136;2023-03-01T04:24:36;-0.40;99.90
31113;DHT22;17763;48.730;9.136;2023-03-01T04:27:02;-0.40;99.90
31113;DHT22;17763;48.730;9.136;2023-03-01T04:29:28;-0.40;99.90
31113;DHT22;17763;48.730;9.136;2023-03-01T04:31:54;-0.40;99.90
31113;DHT22;17763;48.730;9.136;2023-03-01T04:34:19;-0.40;99.90
31113;DHT22;17763;48.730;9.136;2023-03-01T04:36:45;-0.30;99.90
31113;DHT22;17763;48.730;9.136;2023-03-01T04:39:11;-0.30;99.90
31113;DHT22;17763;48.730;9.136;2023-03-01T04:41:40;-0.30;99.90
31113;DHT22;17763;48.730;9.136;2023-03-01T04:44:06;-0.30;99.90
31113;DHT22;17763;48.730;9.136;2023-03-01T04:46:32;-0.30;99.90
31113;DHT22;17763;48.730;9.136;2023-03-01T04:48:58;-0.30;99.90
31113;DHT22;17763;48.730;9.136;2023-03-01T04:51:26;-0.20;99.90
31113;DHT22;17763;48.730;9.136;2023-03-01T04:53:51;-0.20;99.90
31113;DHT22;17763;48.730;9.136;2023-03-01T04:56:17;-0.20;99.90
31113;DHT22;17763;48.730;9.136;2023-03-01T04:58:43;-0.20;99.90
31113;DHT22;17763;48.730;9.136;2023-03-01T05:01:17;-0.20;99.90
31113;DHT22;17763;48.730;9.136;2023-03-01T05:03:45;-0.20;99.90
31113;DHT22;17763;48.730;9.136;2023-03-01T05:06:11;-0.20;99.90
31113;DHT22;17763;48.730;9.136;2023-03-01T05:08:41;-0.20;99.90
31113;DHT22;17763;48.730;9.136;2023-03-01T05:11:07;-0.20;99.90
31113;DHT22;17763;48.730;9.136;2023-03-01T05:13:35;-0.30;99.90
31113;DHT22;17763;48.730;9.136;2023-03-01T05:16:02;-0.20;99.90
31113;DHT22;17763;48.730;9.136;2023-03-01T05:18:32;-0.20;99.90
31113;DHT22;17763;48.730;9.136;2023-03-01T05:21:06;-0.20;99.90
31113;DHT22;17763;48.730;9.136;2023-03-01T05:23:35;-0.20;99.90
31113;DHT22;17763;48.730;9.136;2023-03-01T05:26:05;-0.20;99.90
31113;DHT22;17763;48.730;9.136;2023-03-01T05:28:33;-0.10;99.90
31113;DHT22;17763;48.730;9.136;2023-03-01T05:30:59;0.10;99.90
31113;DHT22;17763;48.730;9.136;2023-03-01T05:33:25;-0.10;99.90
31113;DHT22;17763;48.730;9.136;2023-03-01T05:35:51;-0.10;99.90
31113;DHT22;17763;48.730;9.136;2023-03-01T05:38:19;-0.10;99.90
31113;DHT22;17763;48.730;9.136;2023-03-01T05:40:47;0.00;99.90
31113;DHT22;17763;48.730;9.136;2023-03-01T05:43:14;0.00;99.90
31113;DHT22;17763;48.730;9.136;2023-03-01T05:45:41;0.00;99.90
31113;DHT22;17763;48.730;9.136;2023-03-01T05:48:10;0.00;99.90
31113;DHT22;17763;48.730;9.136;2023-03-01T05:50:45;0.00;99.90
31113;DHT22;17763;48.730;9.136;2023-03-01T05:53:15;0.10;99.90
31113;DHT22;17763;48.730;9.136;2023-03-01T05:55:47;0.10;99.90
31113;DHT22;17763;48.730;9.136;2023-03-01T05:58:15;0.10;99.90
31113;DHT22;17763;48.730;9.136;2023-03-01T06:00:45;0.10;99.90
31113;DHT22;17763;48.730;9.136;2023-03-01T06:03:13;0.20;99.90
31113;DHT22;17763;48.730;9.136;2023-03-01T06:05:40;0.20;99.90
31113;DHT22;17763;48.730;9.136;2023-03-01T06:08:06;0.20;99.90
31113;DHT22;17763;48.730;9.136;2023-03-01T06:10:32;0.30;99.90
31113;DHT22;17763;48.730;9.136;2023-03-01T06:13:02;0.20;99.90
31113;DHT22;17763;48.730;9.136;2023-03-01T06:15:28;0.20;99.90
31113;DHT22;17763;48.730;9.136;2023-03-01T06:17:55;0.20;99.90
31113;DHT22;17763;48.730;9.136;2023-03-01T06:20:25;0.20;99.90
31113;DHT22;17763;48.730;9.136;2023-03-01T06:22:51;0.10;99.90
31113;DHT22;17763;48.730;9.136;2023-03-01T06:25:20;0.20;99.90
31113;DHT22;17763;48.730;9.136;2023-03-01T06:27:47;0.20;99.90
31113;DHT22;17763;48.730;9.136;2023-03-01T06:30:15;0.20;99.90
31113;DHT22;17763;48.730;9.136;2023-03-01T06:32:41;0.30;99.90
31113;DHT22;17763;48.730;9.136;2023-03-01T06:35:10;0.30;99.90
31113;DHT22;17763;48.730;9.136;2023-03-01T06:37:36;0.40;99.90
31113;DHT22;17763;48.730;9.136;2023-03-01T06:40:03;0.30;99.90
31113;DHT22;17763;48.730;9.136;2023-03-01T06:42:37;0.40;99.90
31113;DHT22;17763;48.730;9.136;2023-03-01T06:45:05;0.40;99.90
31113;DHT22;17763;48.730;9.136;2023-03-01T06:47:32;0.40;99.90
31113;DHT22;17763;48.730;9.136;2023-03-01T06:50:02;0.40;99.90
31113;DHT22;17763;48.730;9.136;2023-03-01T06:52:28;0.40;99.90
31113;DHT22;17763;48.730;9.136;2023-03-01T06:54:54;0.40;99.90
31113;DHT22;17763;48.730;9.136;2023-03-01T06:57:19;0.40;99.90
31113;DHT22;17763;48.730;9.136;2023-03-01T06:59:49;0.40;99.90
31113;DHT22;17763;48.730;9.136;2023-03-01T07:02:15;0.40;99.90
31113;DHT22;17763;48.730;9.136;2023-03-01T07:04:41;0.40;99.90
31113;DHT22;17763;48.730;9.136;2023-03-01T07:07:07;0.40;99.90
31113;DHT22;17763;48.730;9.136;2023-03-01T07:09:33;0.40;99.90
31113;DHT22;17763;48.730;9.136;2023-03-01T07:11:59;0.40;99.90
31113;DHT22;17763;48.730;9.136;2023-03-01T07:14:24;0.40;99.90
31113;DHT22;17763;48.730;9.136;2023-03-01T07:16:54;0.40;99.90
31113;DHT22;17763;48.730;9.136;2023-03-01T07:19:20;0.30;99.90
31113;DHT22;17763;48.730;9.136;2023-03-01T07:21:46;0.40;99.90
31113;DHT22;17763;48.730;9.136;2023-03-01T07:24:12;0.40;99.90
31113;DHT22;17763;48.730;9.136;2023-03-01T07:26:38;0.40;99.90
31113;DHT22;17763;48.730;9.136;2023-03-01T07:29:06;0.40;99.90
31113;DHT22;17763;48.730;9.136;2023-03-01T07:31:32;0.50;99.90
31113;DHT22;17763;48.730;9.136;2023-03-01T07:33:58;0.50;99.90
31113;DHT22;17763;48.730;9.136;2023-03-01T07:36:26;0.40;99.90
31113;DHT22;17763;48.730;9.136;2023-03-01T07:38:52;0.40;99.90
31113;DHT22;17763;48.730;9.136;2023-03-01T07:41:18;0.40;99.90
31113;DHT22;17763;48.730;9.136;2023-03-01T07:43:46;0.40;99.90
31113;DHT22;17763;48.730;9.136;2023-03-01T07:46:11;0.50;99.90
31113;DHT22;17763;48.730;9.136;2023-03-01T07:48:37;0.50;99.90
31113;DHT22;17763;48.730;9.136;2023-03-01T07:51:05;0.50;99.90
31113;DHT22;17763;48.730;9.136;2023-03-01T07:53:32;0.50;99.90
31113;DHT22;17763;48.730;9.136;2023-03-01T07:56:09;0.50;99.90
31113;DHT22;17763;48.730;9.136;2023-03-01T07:58:36;0.50;99.90
31113;DHT22;17763;48.730;9.136;2023-03-01T08:01:06;0.50;99.90
31113;DHT22;17763;48.730;9.136;2023-03-01T08:03:35;0.50;99.90
31113;DHT22;17763;48.730;9.136;2023-03-01T08:06:02;0.50;99.90
31113;DHT22;17763;48.730;9.136;2023-03-01T08:08:28;0.50;99.90
31113;DHT22;17763;48.730;9.136;2023-03-01T08:10:58;0.50;99.90
31113;DHT22;17763;48.730;9.136;2023-03-01T08:13:24;0.50;99.90
31113;DHT22;17763;48.730;9.136;2023-03-01T08:15:50;0.50;99.90
31113;DHT22;17763;48.730;9.136;2023-03-01T08:18:16;0.50;99.90
31113;DHT22;17763;48.730;9.136;2023-03-01T08:20:42;0.50;99.90
31113;DHT22;17763;48.730;9.136;2023-03-01T08:23:08;0.50;99.90
31113;DHT22;17763;48.730;9.136;2023-03-01T08:25:34;0.50;99.90
31113;DHT22;17763;48.730;9.136;2023-03-01T08:28:02;0.60;99.90
31113;DHT22;17763;48.730;9.136;2023-03-01T08:30:28;0.60;99.90
31113;DHT22;17763;48.730;9.136;2023-03-01T08:32:54;0.60;99.90
31113;DHT22;17763;48.730;9.136;2023-03-01T08:35:20;0.80;99.90
31113;DHT22;17763;48.730;9.136;2023-03-01T08:37:46;0.70;99.90
31113;DHT22;17763;48.730;9.136;2023-03-01T08:40:12;0.80;99.90
31113;DHT22;17763;48.730;9.136;2023-03-01T08:42:40;0.80;99.90
31113;DHT22;17763;48.730;9.136;2023-03-01T08:45:07;0.80;99.90
31113;DHT22;17763;48.730;9.136;2023-03-01T08:47:33;0.80;99.90
31113;DHT22;17763;48.730;9.136;2023-03-01T08:50:02;0.80;99.90
31113;DHT22;17763;48.730;9.136;2023-03-01T08:52:27;0.90;99.90
31113;DHT22;17763;48.730;9.136;2023-03-01T08:54:56;0.90;99.90
31113;DHT22;17763;48.730;9.136;2023-03-01T08:57:22;0.90;99.90
31113;DHT22;17763;48.730;9.136;2023-03-01T08:59:47;0.90;99.90
31113;DHT22;17763;48.730;9.136;2023-03-01T09:02:16;1.00;99.90
31113;DHT22;17763;48.730;9.136;2023-03-01T09:04:42;1.00;99.90
31113;DHT22;17763;48.730;9.136;2023-03-01T09:07:08;1.10;99.90
31113;DHT22;17763;48.730;9.136;2023-03-01T09:09:34;1.00;99.90
31113;DHT22;17763;48.730;9.136;2023-03-01T09:12:02;1.10;99.90
31113;DHT22;17763;48.730;9.136;2023-03-01T09:14:30;1.10;99.90
31113;DHT22;17763;48.730;9.136;2023-03-01T09:16:56;1.10;99.90
31113;DHT22;17763;48.730;9.136;2023-03-01T09:19:22;1.20;99.90
31113;DHT22;17763;48.730;9.136;2023-03-01T09:21:48;1.10;99.90
31113;DHT22;17763;48.730;9.136;2023-03-01T09:24:22;1.20;99.90
31113;DHT22;17763;48.730;9.136;2023-03-01T09:26:49;1.20;99.90
31113;DHT22;17763;48.730;9.136;2023-03-01T09:29:15;1.30;99.90
31113;DHT22;17763;48.730;9.136;2023-03-01T09:31:42;1.40;99.90
31113;DHT22;17763;48.730;9.136;2023-03-01T09:34:10;1.40;99.90
31113;DHT22;17763;48.730;9.136;2023-03-01T09:36:36;1.50;99.90
31113;DHT22;17763;48.730;9.136;2023-03-01T09:39:03;1.60;99.90
31113;DHT22;17763;48.730;9.136;2023-03-01T09:44:32;1.80;99.90
31113;DHT22;17763;48.730;9.136;2023-03-01T09:47:02;1.90;99.90
31113;DHT22;17763;48.730;9.136;2023-03-01T09:49:39;2.00;99.90
31113;DHT22;17763;48.730;9.136;2023-03-01T09:53:00;2.00;99.90
31113;DHT22;17763;48.730;9.136;2023-03-01T09:55:10;2.00;99.90
31113;DHT22;17763;48.730;9.136;2023-03-01T10:03:15;2.20;99.90
31113;DHT22;17763;48.730;9.136;2023-03-01T10:11:21;2.30;99.60
31113;DHT22;17763;48.730;9.136;2023-03-01T10:14:04;2.40;99.20
31113;DHT22;17763;48.730;9.136;2023-03-01T10:16:48;2.40;98.50
31113;DHT22;17763;48.730;9.136;2023-03-01T10:19:27;2.50;98.60
31113;DHT22;17763;48.730;9.136;2023-03-01T10:22:20;2.50;98.30
31113;DHT22;17763;48.730;9.136;2023-03-01T10:24:47;2.50;98.10
31113;DHT22;17763;48.730;9.136;2023-03-01T10:32:46;2.60;98.10
31113;DHT22;17763;48.730;9.136;2023-03-01T10:35:25;2.70;97.70
31113;DHT22;17763;48.730;9.136;2023-03-01T10:38:09;2.70;97.50
31113;DHT22;17763;48.730;9.136;2023-03-01T10:40:49;2.80;97.80
31113;DHT22;17763;48.730;9.136;2023-03-01T10:43:17;2.90;97.70
31113;DHT22;17763;48.730;9.136;2023-03-01T10:45:43;2.90;97.50
31113;DHT22;17763;48.730;9.136;2023-03-01T10:48:13;3.00;97.50
31113;DHT22;17763;48.730;9.136;2023-03-01T10:50:41;3.00;97.10
31113;DHT22;17763;48.730;9.136;2023-03-01T10:55:57;3.10;96.50
31113;DHT22;17763;48.730;9.136;2023-03-01T10:58:26;3.20;96.10
31113;DHT22;17763;48.730;9.136;2023-03-01T11:00:56;3.20;96.10
31113;DHT22;17763;48.730;9.136;2023-03-01T11:03:32;3.30;96.40
31113;DHT22;17763;48.730;9.136;2023-03-01T11:08:34;3.40;95.50
31113;DHT22;17763;48.730;9.136;2023-03-01T11:11:21;3.40;95.20
31113;DHT22;17763;48.730;9.136;2023-03-01T11:21:59;3.60;95.50
31113;DHT22;17763;48.730;9.136;2023-03-01T11:24:41;3.70;97.90
31113;DHT22;17763;48.730;9.136;2023-03-01T11:35:28;3.80;94.20
31113;DHT22;17763;48.730;9.136;2023-03-01T11:45:46;4.00;93.00
31113;DHT22;17763;48.730;9.136;2023-03-01T11:56:34;4.20;93.10
31113;DHT22;17763;48.730;9.136;2023-03-01T12:12:32;4.40;92.50
31113;DHT22;17763;48.730;9.136;2023-03-01T12:15:28;4.50;92.50
31113;DHT22;17763;48.730;9.136;2023-03-01T12:34:51;4.90;91.20
31113;DHT22;17763;48.730;9.136;2023-03-01T12:37:32;4.90;90.00
31113;DHT22;17763;48.730;9.136;2023-03-01T12:45:39;5.00;89.20
31113;DHT22;17763;48.730;9.136;2023-03-01T12:51:26;5.10;89.90
31113;DHT22;17763;48.730;9.136;2023-03-01T12:53:54;5.20;89.20
31113;DHT22;17763;48.730;9.136;2023-03-01T12:56:23;5.20;88.90
31113;DHT22;17763;48.730;9.136;2023-03-01T13:05:26;5.30;87.60
31113;DHT22;17763;48.730;9.136;2023-03-01T13:08:31;5.40;87.00
31113;DHT22;17763;48.730;9.136;2023-03-01T13:13:26;5.50;87.00
31113;DHT22;17763;48.730;9.136;2023-03-01T13:15:52;5.60;85.50
31113;DHT22;17763;48.730;9.136;2023-03-01T13:20:46;5.60;84.40
31113;DHT22;17763;48.730;9.136;2023-03-01T13:28:48;5.80;83.70
31113;DHT22;17763;48.730;9.136;2023-03-01T13:33:53;5.90;84.30
31113;DHT22;17763;48.730;9.136;2023-03-01T13:39:29;6.10;85.10
31113;DHT22;17763;48.730;9.136;2023-03-01T13:41:58;6.20;82.90
31113;DHT22;17763;48.730;9.136;2023-03-01T13:44:37;6.20;82.50
31113;DHT22;17763;48.730;9.136;2023-03-01T13:47:16;6.30;81.50
31113;DHT22;17763;48.730;9.136;2023-03-01T13:49:52;6.30;80.90
31113;DHT22;17763;48.730;9.136;2023-03-01T13:55:18;6.40;80.00
31113;DHT22;17763;48.730;9.136;2023-03-01T13:58:00;6.40;80.30
31113;DHT22;17763;48.730;9.136;2023-03-01T14:00:35;6.50;81.10
31113;DHT22;17763;48.730;9.136;2023-03-01T14:03:09;6.60;81.10
31113;DHT22;17763;48.730;9.136;2023-03-01T14:05:36;6.60;79.50
31113;DHT22;17763;48.730;9.136;2023-03-01T14:08:14;6.60;78.80
31113;DHT22;17763;48.730;9.136;2023-03-01T14:16:01;6.50;78.10
31113;DHT22;17763;48.730;9.136;2023-03-01T14:18:39;6.50;78.40
31113;DHT22;17763;48.730;9.136;2023-03-01T14:21:09;6.50;78.90
31113;DHT22;17763;48.730;9.136;2023-03-01T14:23:34;6.50;78.60
31113;DHT22;17763;48.730;9.136;2023-03-01T14:26:07;6.50;78.90
31113;DHT22;17763;48.730;9.136;2023-03-01T14:28:36;6.60;78.70
31113;DHT22;17763;48.730;9.136;2023-03-01T14:31:41;6.60;78.70
31113;DHT22;17763;48.730;9.136;2023-03-01T14:34:19;6.60;78.60
31113;DHT22;17763;48.730;9.136;2023-03-01T14:36:45;6.70;78.80
31113;DHT22;17763;48.730;9.136;2023-03-01T14:39:18;6.70;78.70
31113;DHT22;17763;48.730;9.136;2023-03-01T14:41:44;6.80;78.30
31113;DHT22;17763;48.730;9.136;2023-03-01T14:44:22;6.80;77.70
31113;DHT22;17763;48.730;9.136;2023-03-01T14:46:55;6.80;78.30
31113;DHT22;17763;48.730;9.136;2023-03-01T14:49:24;6.90;78.20
31113;DHT22;17763;48.730;9.136;2023-03-01T14:54:28;7.00;76.90
31113;DHT22;17763;48.730;9.136;2023-03-01T14:57:00;7.00;77.10
31113;DHT22;17763;48.730;9.136;2023-03-01T14:59:27;6.90;76.90
31113;DHT22;17763;48.730;9.136;2023-03-01T15:01:55;6.90;76.90
31113;DHT22;17763;48.730;9.136;2023-03-01T15:04:22;6.80;77.50
31113;DHT22;17763;48.730;9.136;2023-03-01T15:06:53;6.80;77.60
31113;DHT22;17763;48.730;9.136;2023-03-01T15:09:21;6.80;77.70
31113;DHT22;17763;48.730;9.136;2023-03-01T15:11:47;6.80;77.90
31113;DHT22;17763;48.730;9.136;2023-03-01T15:17:05;7.00;77.90
31113;DHT22;17763;48.730;9.136;2023-03-01T15:19:30;7.00;77.50
31113;DHT22;17763;48.730;9.136;2023-03-01T15:21:58;7.00;76.70
31113;DHT22;17763;48.730;9.136;2023-03-01T15:24:25;7.10;76.80
31113;DHT22;17763;48.730;9.136;2023-03-01T15:26:58;7.00;76.30
31113;DHT22;17763;48.730;9.136;2023-03-01T15:29:29;7.00;76.30
31113;DHT22;17763;48.730;9.136;2023-03-01T15:34:31;6.90;76.80
31113;DHT22;17763;48.730;9.136;2023-03-01T15:37:00;6.90;77.10
31113;DHT22;17763;48.730;9.136;2023-03-01T15:39:40;6.90;77.30
31113;DHT22;17763;48.730;9.136;2023-03-01T15:47:56;6.90;76.80
31113;DHT22;17763;48.730;9.136;2023-03-01T15:50:35;6.90;76.70
31113;DHT22;17763;48.730;9.136;2023-03-01T15:53:09;6.80;76.80
31113;DHT22;17763;48.730;9.136;2023-03-01T15:55:36;6.80;76.80
31113;DHT22;17763;48.730;9.136;2023-03-01T15:58:20;6.70;76.90
31113;DHT22;17763;48.730;9.136;2023-03-01T16:00:46;6.70;77.00
31113;DHT22;17763;48.730;9.136;2023-03-01T16:03:14;6.80;76.90
31113;DHT22;17763;48.730;9.136;2023-03-01T16:05:42;6.80;76.50
31113;DHT22;17763;48.730;9.136;2023-03-01T16:08:08;6.70;76.50
31113;DHT22;17763;48.730;9.136;2023-03-01T16:10:35;6.70;76.00
31113;DHT22;17763;48.730;9.136;2023-03-01T16:13:01;6.70;75.70
31113;DHT22;17763;48.730;9.136;2023-03-01T16:15:29;6.60;75.60
31113;DHT22;17763;48.730;9.136;2023-03-01T16:17:55;6.60;75.50
31113;DHT22;17763;48.730;9.136;2023-03-01T16:20:22;6.40;75.70
31113;DHT22;17763;48.730;9.136;2023-03-01T16:22:48;6.40;75.70
31113;DHT22;17763;48.730;9.136;2023-03-01T16:25:16;6.40;75.50
31113;DHT22;17763;48.730;9.136;2023-03-01T16:27:43;6.30;75.60
31113;DHT22;17763;48.730;9.136;2023-03-01T16:30:10;6.20;76.20
31113;DHT22;17763;48.730;9.136;2023-03-01T16:32:43;6.20;75.80
31113;DHT22;17763;48.730;9.136;2023-03-01T16:35:12;6.20;75.50
31113;DHT22;17763;48.730;9.136;2023-03-01T16:37:39;6.10;75.60
31113;DHT22;17763;48.730;9.136;2023-03-01T16:40:06;6.10;75.70
31113;DHT22;17763;48.730;9.136;2023-03-01T16:42:37;6.10;76.20
31113;DHT22;17763;48.730;9.136;2023-03-01T16:45:03;6.10;76.30
31113;DHT22;17763;48.730;9.136;2023-03-01T16:47:33;6.10;76.30
31113;DHT22;17763;48.730;9.136;2023-03-01T16:49:59;6.00;75.90
31113;DHT22;17763;48.730;9.136;2023-03-01T16:52:24;6.00;76.00
31113;DHT22;17763;48.730;9.136;2023-03-01T16:54:50;6.00;76.10
31113;DHT22;17763;48.730;9.136;2023-03-01T16:57:16;5.90;76.30
31113;DHT22;17763;48.730;9.136;2023-03-01T16:59:41;5.90;76.40
31113;DHT22;17763;48.730;9.136;2023-03-01T17:02:11;5.90;76.50
31113;DHT22;17763;48.730;9.136;2023-03-01T17:04:38;5.80;77.10
31113;DHT22;17763;48.730;9.136;2023-03-01T17:07:05;5.80;76.60
31113;DHT22;17763;48.730;9.136;2023-03-01T17:09:34;5.80;76.70
31113;DHT22;17763;48.730;9.136;2023-03-01T17:12:00;5.70;76.80
31113;DHT22;17763;48.730;9.136;2023-03-01T17:14:25;5.70;77.00
31113;DHT22;17763;48.730;9.136;2023-03-01T17:16:51;5.70;77.00
31113;DHT22;17763;48.730;9.136;2023-03-01T17:19:18;5.70;77.10
31113;DHT22;17763;48.730;9.136;2023-03-01T17:21:44;5.70;77.20
31113;DHT22;17763;48.730;9.136;2023-03-01T17:24:11;5.60;77.30
31113;DHT22;17763;48.730;9.136;2023-03-01T17:26:38;5.60;77.40
31113;DHT22;17763;48.730;9.136;2023-03-01T17:29:04;5.60;77.60
31113;DHT22;17763;48.730;9.136;2023-03-01T17:31:32;5.50;77.60
31113;DHT22;17763;48.730;9.136;2023-03-01T17:33:58;5.50;77.70
31113;DHT22;17763;48.730;9.136;2023-03-01T17:36:24;5.60;77.90
31113;DHT22;17763;48.730;9.136;2023-03-01T17:38:51;5.50;78.10
31113;DHT22;17763;48.730;9.136;2023-03-01T17:41:17;5.50;78.40
31113;DHT22;17763;48.730;9.136;2023-03-01T17:43:49;5.40;79.00
31113;DHT22;17763;48.730;9.136;2023-03-01T17:46:14;5.40;78.80
31113;DHT22;17763;48.730;9.136;2023-03-01T17:48:45;5.40;79.00
31113;DHT22;17763;48.730;9.136;2023-03-01T17:51:11;5.40;79.10
31113;DHT22;17763;48.730;9.136;2023-03-01T17:53:37;5.40;79.30
31113;DHT22;17763;48.730;9.136;2023-03-01T17:56:04;5.40;79.50
31113;DHT22;17763;48.730;9.136;2023-03-01T17:58:33;5.30;79.60
31113;DHT22;17763;48.730;9.136;2023-03-01T18:03:33;5.30;80.00
31113;DHT22;17763;48.730;9.136;2023-03-01T18:05:59;5.20;79.90
31113;DHT22;17763;48.730;9.136;2023-03-01T18:08:24;5.20;80.00
31113;DHT22;17763;48.730;9.136;2023-03-01T18:10:57;5.20;80.10
31113;DHT22;17763;48.730;9.136;2023-03-01T18:13:25;5.10;80.20
31113;DHT22;17763;48.730;9.136;2023-03-01T18:15:51;5.10;80.20
31113;DHT22;17763;48.730;9.136;2023-03-01T18:18:17;5.10;80.30
31113;DHT22;17763;48.730;9.136;2023-03-01T18:20:42;5.00;80.30
31113;DHT22;17763;48.730;9.136;2023-03-01T18:23:08;5.10;80.40
31113;DHT22;17763;48.730;9.136;2023-03-01T18:25:33;5.00;80.60
31113;DHT22;17763;48.730;9.136;2023-03-01T18:28:03;4.90;80.70
31113;DHT22;17763;48.730;9.136;2023-03-01T18:30:28;4.90;80.80
31113;DHT22;17763;48.730;9.136;2023-03-01T18:32:54;4.90;81.00
31113;DHT22;17763;48.730;9.136;2023-03-01T18:35:22;4.80;81.10